createdAt,value
2022-11-17T00:02:04.712Z,76.81
2022-11-17T00:04:32.494Z,76.44
2022-11-17T00:07:01.109Z,76.30
2022-11-17T00:09:28.955Z,75.67
2022-11-17T00:12:20.502Z,76.18
2022-11-17T00:14:50.160Z,76.62
2022-11-17T00:17:18.008Z,76.31
2022-11-17T00:20:03.319Z,76.00
2022-11-17T00:22:32.266Z,75.99
2022-11-17T00:25:00.262Z,75.89
2022-11-17T00:27:29.342Z,76.31
2022-11-17T00:29:57.502Z,75.60
2022-11-17T00:32:43.306Z,75.75
2022-11-17T00:35:11.082Z,76.37
2022-11-17T00:38:03.084Z,76.08
2022-11-17T00:40:31.455Z,76.23
2022-11-17T00:43:00.583Z,76.57
2022-11-17T00:45:28.310Z,76.21
2022-11-17T00:47:56.046Z,76.90
2022-11-17T00:50:24.114Z,76.81
2022-11-17T00:52:52.223Z,76.96
2022-11-17T00:55:20.061Z,76.83
2022-11-17T00:57:47.813Z,77.16
2022-11-17T01:00:21.153Z,77.29
2022-11-17T01:02:48.901Z,77.20
2022-11-17T01:05:16.867Z,77.33
2022-11-17T01:07:44.622Z,77.33
2022-11-17T01:10:12.312Z,78.00
2022-11-17T01:12:40.909Z,79.07
2022-11-17T01:15:10.375Z,79.12
2022-11-17T01:17:39.444Z,79.59
2022-11-17T01:20:09.656Z,80.42
2022-11-17T01:22:38.633Z,81.30
2022-11-17T01:25:07.704Z,81.51
2022-11-17T01:27:35.449Z,81.26
2022-11-17T01:30:03.388Z,81.88
2022-11-17T01:32:31.140Z,82.88
2022-11-17T01:35:00.170Z,82.63
2022-11-17T01:37:28.022Z,82.99
2022-11-17T01:39:55.668Z,83.44
2022-11-17T01:42:26.856Z,83.62
2022-11-17T01:45:06.023Z,84.06
2022-11-17T01:47:43.200Z,84.48
2022-11-17T01:50:26.162Z,84.78
2022-11-17T01:52:59.483Z,84.55
2022-11-17T01:55:35.433Z,84.39
2022-11-17T01:58:09.941Z,84.71
2022-11-17T02:00:38.132Z,84.93
2022-11-17T02:03:07.155Z,85.45
2022-11-17T02:05:49.083Z,85.64
2022-11-17T02:08:20.514Z,85.48
2022-11-17T02:10:51.765Z,84.78
2022-11-17T02:13:21.170Z,84.87
2022-11-17T02:15:49.129Z,84.90
2022-11-17T02:18:18.413Z,84.81
2022-11-17T02:21:11.572Z,84.99
2022-11-17T02:24:20.735Z,85.11
2022-11-17T02:27:45.928Z,84.95
2022-11-17T02:30:17.781Z,85.70
2022-11-17T02:33:03.553Z,86.06
2022-11-17T02:35:45.266Z,85.42
2022-11-17T02:38:27.980Z,85.89
2022-11-17T02:41:09.463Z,85.97
2022-11-17T02:44:05.924Z,85.85
2022-11-17T02:46:41.924Z,85.92
2022-11-17T02:49:20.751Z,86.39
2022-11-17T02:51:53.930Z,86.14
2022-11-17T02:54:24.980Z,86.06
2022-11-17T02:56:52.793Z,85.63
2022-11-17T02:59:29.972Z,85.51
2022-11-17T03:02:21.099Z,86.31
2022-11-17T03:05:08.045Z,85.96
2022-11-17T03:07:56.509Z,85.83
2022-11-17T03:10:40.282Z,86.65
2022-11-17T03:13:17.696Z,86.07
2022-11-17T03:15:54.884Z,86.61
2022-11-17T03:18:36.237Z,85.82
2022-11-17T03:21:14.065Z,86.48
2022-11-17T03:23:47.833Z,86.13
2022-11-17T03:26:24.684Z,86.23
2022-11-17T03:28:55.247Z,85.77
2022-11-17T03:31:29.058Z,86.06
2022-11-17T03:33:59.130Z,86.11
2022-11-17T03:36:35.632Z,86.22
2022-11-17T03:39:12.504Z,85.49
2022-11-17T03:41:44.018Z,85.80
2022-11-17T03:44:16.384Z,85.31
2022-11-17T03:46:52.865Z,86.00
2022-11-17T03:49:33.990Z,85.93
2022-11-17T03:52:02.207Z,85.53
2022-11-17T03:54:30.055Z,85.80
2022-11-17T03:57:06.836Z,85.44
2022-11-17T03:59:46.784Z,85.92
2022-11-17T04:02:19.462Z,86.47
2022-11-17T04:05:04.899Z,86.39
2022-11-17T04:07:33.048Z,85.17
2022-11-17T04:10:01.007Z,85.20
2022-11-17T04:12:54.983Z,85.29
2022-11-17T04:15:40.688Z,84.63
2022-11-17T04:18:09.790Z,84.36
2022-11-17T04:20:37.773Z,84.25
2022-11-17T04:23:08.331Z,84.38
2022-11-17T04:25:54.385Z,84.28
2022-11-17T04:28:39.303Z,85.10
2022-11-17T04:31:13.770Z,85.12
2022-11-17T04:33:44.964Z,85.59
2022-11-17T04:36:15.050Z,85.32
2022-11-17T04:38:43.610Z,86.25
2022-11-17T04:41:31.421Z,86.21
2022-11-17T04:43:59.610Z,86.55
2022-11-17T04:46:28.472Z,86.06
2022-11-17T04:48:58.718Z,87.02
2022-11-17T04:51:28.595Z,86.39
2022-11-17T04:53:57.681Z,85.89
2022-11-17T04:56:26.953Z,86.21
2022-11-17T04:58:55.358Z,85.74
2022-11-17T05:01:24.518Z,85.43
2022-11-17T05:03:55.095Z,85.48
2022-11-17T05:06:27.357Z,85.35
2022-11-17T05:08:56.918Z,85.57
2022-11-17T05:11:44.450Z,85.59
2022-11-17T05:14:14.248Z,85.53
2022-11-17T05:17:10.052Z,85.44
2022-11-17T05:19:41.657Z,86.01
2022-11-17T05:22:31.453Z,85.71
2022-11-17T05:24:59.263Z,86.67
2022-11-17T05:27:27.126Z,86.77
2022-11-17T05:29:54.911Z,86.42
2022-11-17T05:32:23.122Z,86.48
2022-11-17T05:34:51.070Z,86.32
2022-11-17T05:37:20.180Z,85.86
2022-11-17T05:39:47.902Z,86.05
2022-11-17T05:42:15.619Z,85.53
2022-11-17T05:44:43.389Z,85.50
2022-11-17T05:47:11.201Z,85.37
2022-11-17T05:49:38.946Z,85.80
2022-11-17T05:52:06.865Z,86.20
2022-11-17T05:54:36.759Z,85.85
2022-11-17T05:57:10.030Z,85.85
2022-11-17T05:59:45.152Z,85.87
2022-11-17T06:02:19.466Z,85.25
2022-11-17T06:04:49.606Z,85.26
2022-11-17T06:07:19.119Z,85.15
2022-11-17T06:09:48.863Z,85.28
2022-11-17T06:12:16.576Z,84.40
2022-11-17T06:14:44.738Z,84.84
2022-11-17T06:17:22.607Z,84.46
2022-11-17T06:19:56.928Z,84.20
2022-11-17T06:22:27.413Z,84.46
2022-11-17T06:24:57.904Z,84.36
2022-11-17T06:27:26.950Z,84.26
2022-11-17T06:29:57.186Z,84.14
2022-11-17T06:32:24.960Z,84.90
2022-11-17T06:34:56.093Z,85.22
2022-11-17T06:37:25.504Z,84.97
2022-11-17T06:39:53.678Z,84.78
2022-11-17T06:42:46.355Z,84.75
2022-11-17T06:45:14.159Z,84.28
2022-11-17T06:47:41.944Z,84.49
2022-11-17T06:50:11.142Z,83.94
2022-11-17T06:52:39.512Z,83.96
2022-11-17T06:55:09.107Z,84.26
2022-11-17T06:57:38.423Z,84.18
2022-11-17T07:00:08.192Z,84.77
2022-11-17T07:02:37.219Z,84.57
2022-11-17T07:05:05.880Z,84.75
2022-11-17T07:07:34.006Z,84.45
2022-11-17T07:10:02.233Z,84.84
2022-11-17T07:12:30.225Z,85.41
2022-11-17T07:14:59.561Z,84.96
2022-11-17T07:17:29.134Z,84.72
2022-11-17T07:19:57.151Z,85.22
2022-11-17T07:22:25.646Z,85.46
2022-11-17T07:24:53.618Z,85.11
2022-11-17T07:27:21.576Z,84.96
2022-11-17T07:29:49.483Z,84.94
2022-11-17T07:32:19.171Z,85.60
2022-11-17T07:34:47.740Z,85.70
2022-11-17T07:37:15.708Z,85.52
2022-11-17T07:39:44.004Z,85.21
2022-11-17T07:42:11.864Z,85.39
2022-11-17T07:44:39.778Z,85.27
2022-11-17T07:47:07.803Z,85.00
2022-11-17T07:49:37.693Z,85.21
2022-11-17T07:52:06.287Z,85.72
2022-11-17T07:54:34.179Z,85.44
2022-11-17T07:57:02.051Z,85.28
2022-11-17T07:59:29.896Z,85.67
2022-11-17T08:01:58.117Z,85.05
2022-11-17T08:04:26.028Z,85.14
2022-11-17T08:06:55.314Z,84.92
2022-11-17T08:09:23.187Z,84.53
2022-11-17T08:11:51.944Z,83.91
2022-11-17T08:14:19.884Z,83.94
2022-11-17T08:16:48.047Z,83.92
2022-11-17T08:19:16.560Z,83.52
2022-11-17T08:21:44.703Z,83.52
2022-11-17T08:24:15.063Z,83.14
2022-11-17T08:26:43.075Z,83.46
2022-11-17T08:29:11.228Z,84.54
2022-11-17T08:31:41.606Z,84.41
2022-11-17T08:34:09.772Z,84.47
2022-11-17T08:36:37.808Z,83.89
2022-11-17T08:39:05.875Z,84.23
2022-11-17T08:41:35.264Z,84.44
2022-11-17T08:44:03.139Z,84.69
2022-11-17T08:46:31.051Z,84.78
2022-11-17T08:48:59.093Z,84.75
2022-11-17T08:51:28.916Z,84.16
2022-11-17T08:53:59.602Z,84.35
2022-11-17T08:56:27.589Z,84.37
2022-11-17T08:58:57.009Z,84.27
2022-11-17T09:01:24.926Z,83.58
2022-11-17T09:03:52.892Z,83.42
2022-11-17T09:06:21.106Z,83.97
2022-11-17T09:08:50.137Z,83.88
2022-11-17T09:11:18.243Z,83.67
2022-11-17T09:13:46.847Z,83.86
2022-11-17T09:16:17.663Z,83.43
2022-11-17T09:18:45.784Z,83.47
2022-11-17T09:21:17.223Z,82.77
2022-11-17T09:23:45.425Z,82.89
2022-11-17T09:26:15.636Z,83.05
2022-11-17T09:28:44.037Z,83.39
2022-11-17T09:31:15.042Z,82.91
2022-11-17T09:33:45.408Z,82.81
2022-11-17T09:36:16.193Z,82.89
2022-11-17T09:38:45.025Z,82.87
2022-11-17T09:41:24.279Z,83.08
2022-11-17T09:44:05.064Z,82.79
2022-11-17T09:46:49.659Z,83.29
2022-11-17T09:49:34.739Z,83.68
2022-11-17T09:52:15.968Z,83.32
2022-11-17T09:54:50.379Z,83.34
2022-11-17T09:57:27.281Z,82.91
2022-11-17T10:00:09.133Z,82.99
2022-11-17T10:02:37.063Z,82.41
2022-11-17T10:05:07.829Z,81.92
2022-11-17T10:07:36.661Z,83.07
2022-11-17T10:10:13.082Z,83.08
2022-11-17T10:12:52.520Z,83.72
2022-11-17T10:15:29.367Z,84.23
2022-11-17T10:17:57.199Z,83.66
2022-11-17T10:20:26.551Z,84.16
2022-11-17T10:22:57.804Z,83.43
2022-11-17T10:25:39.483Z,82.97
2022-11-17T10:28:10.734Z,83.10
2022-11-17T10:30:38.679Z,83.38
2022-11-17T10:33:06.515Z,83.67
2022-11-17T10:35:36.791Z,83.42
2022-11-17T10:38:07.580Z,82.95
2022-11-17T10:40:51.187Z,82.28
2022-11-17T10:43:27.211Z,82.41
2022-11-17T10:45:59.594Z,82.33
2022-11-17T10:48:33.984Z,81.87
2022-11-17T10:51:09.205Z,82.28
2022-11-17T10:53:46.050Z,81.53
2022-11-17T10:56:18.947Z,81.44
2022-11-17T10:59:03.248Z,81.76
2022-11-17T11:01:35.223Z,82.18
2022-11-17T11:04:05.101Z,82.63
2022-11-17T11:06:36.137Z,82.08
2022-11-17T11:09:13.201Z,82.17
2022-11-17T11:11:46.450Z,82.18
2022-11-17T11:14:23.114Z,82.11
2022-11-17T11:16:51.996Z,82.10
2022-11-17T11:19:21.616Z,81.46
2022-11-17T11:22:27.470Z,81.19
2022-11-17T11:25:10.993Z,81.25
2022-11-17T11:28:04.873Z,81.77
2022-11-17T11:30:40.823Z,82.21
2022-11-17T11:33:26.925Z,82.23
2022-11-17T11:36:27.462Z,81.62
2022-11-17T11:39:07.898Z,82.12
2022-11-17T11:41:57.254Z,81.61
2022-11-17T11:44:55.015Z,82.34
2022-11-17T11:47:46.053Z,82.60
2022-11-17T11:50:20.938Z,82.80
2022-11-17T11:52:55.483Z,82.32
2022-11-17T11:55:33.274Z,81.53
2022-11-17T11:58:12.456Z,82.25
2022-11-17T12:00:42.991Z,81.97
2022-11-17T12:03:24.621Z,82.21
2022-11-17T12:06:23.696Z,82.03
2022-11-17T12:09:08.096Z,81.85
2022-11-17T12:11:59.391Z,82.41
2022-11-17T12:14:29.642Z,80.89
2022-11-17T12:17:18.655Z,81.84
2022-11-17T12:19:57.245Z,81.32
2022-11-17T12:23:10.107Z,81.48
2022-11-17T12:25:52.246Z,81.07
2022-11-17T12:28:34.605Z,81.08
2022-11-17T12:31:09.772Z,80.25
2022-11-17T12:34:21.115Z,80.03
2022-11-17T12:37:28.493Z,80.79
2022-11-17T12:40:08.679Z,79.68
2022-11-17T12:42:38.284Z,79.48
2022-11-17T12:45:10.584Z,79.03
2022-11-17T12:47:40.557Z,79.13
2022-11-17T12:50:40.380Z,79.48
2022-11-17T12:53:27.418Z,78.40
2022-11-17T12:56:24.435Z,77.44
2022-11-17T12:59:15.819Z,77.41
2022-11-17T13:01:56.464Z,77.14
2022-11-17T13:04:35.281Z,76.50
2022-11-17T13:07:05.897Z,76.13
2022-11-17T13:09:36.408Z,75.40
2022-11-17T13:12:07.515Z,75.90
2022-11-17T13:14:38.171Z,76.06
2022-11-17T13:17:12.721Z,76.20
2022-11-17T13:19:42.395Z,75.64
2022-11-17T13:22:18.710Z,75.75
2022-11-17T13:24:48.904Z,76.15
2022-11-17T13:27:23.765Z,76.13
2022-11-17T13:29:51.955Z,75.62
2022-11-17T13:32:23.853Z,76.13
2022-11-17T13:34:56.422Z,76.78
2022-11-17T13:37:27.145Z,75.76
2022-11-17T13:39:58.045Z,75.72
2022-11-17T13:42:28.799Z,75.80
2022-11-17T13:44:59.793Z,75.98
2022-11-17T13:47:45.362Z,76.52
2022-11-17T13:50:38.242Z,76.72
2022-11-17T13:53:23.467Z,76.10
2022-11-17T13:55:52.384Z,76.05
2022-11-17T13:58:36.841Z,75.77
2022-11-17T14:01:05.459Z,75.69
2022-11-17T14:03:38.143Z,75.98
2022-11-17T14:06:08.645Z,75.63
2022-11-17T14:08:39.481Z,76.16
2022-11-17T14:11:22.450Z,75.88
2022-11-17T14:13:53.973Z,75.93
2022-11-17T14:16:27.222Z,76.94
2022-11-17T14:19:34.020Z,75.97
2022-11-17T14:22:05.085Z,75.66
2022-11-17T14:24:33.631Z,76.13
2022-11-17T14:27:02.545Z,76.16
2022-11-17T14:29:30.475Z,76.33
2022-11-17T14:31:58.783Z,75.92
2022-11-17T14:34:26.544Z,75.71
2022-11-17T14:36:57.385Z,76.43
2022-11-17T14:39:25.230Z,76.27
2022-11-17T14:41:53.254Z,76.85
2022-11-17T14:44:21.835Z,76.48
2022-11-17T14:46:49.671Z,76.50
2022-11-17T14:49:17.854Z,75.90
2022-11-17T14:51:49.751Z,76.93
2022-11-17T14:54:18.911Z,77.04
2022-11-17T14:56:46.911Z,76.68
2022-11-17T14:59:15.045Z,77.00
2022-11-17T15:01:43.302Z,77.09
2022-11-17T15:04:48.180Z,76.96
2022-11-17T15:07:04.219Z,77.97
2022-11-17T15:09:33.584Z,77.76
2022-11-17T15:12:01.786Z,78.08
2022-11-17T15:14:29.588Z,77.61
2022-11-17T15:16:57.468Z,77.59
2022-11-17T15:19:25.279Z,78.14
2022-11-17T15:21:53.105Z,77.99
2022-11-17T15:24:20.833Z,78.08
2022-11-17T15:26:49.983Z,78.44
2022-11-17T15:29:18.222Z,77.95
2022-11-17T15:31:46.347Z,78.20
2022-11-17T15:34:19.972Z,78.35
2022-11-17T15:36:48.640Z,78.26
2022-11-17T15:39:17.012Z,78.21
2022-11-17T15:41:45.730Z,78.73
2022-11-17T15:44:15.152Z,77.94
2022-11-17T15:46:47.449Z,78.23
2022-11-17T15:49:16.056Z,78.07
2022-11-17T15:51:44.253Z,77.71
2022-11-17T15:54:19.634Z,77.45
2022-11-17T15:56:48.548Z,77.24
2022-11-17T15:59:18.266Z,77.51
2022-11-17T16:01:46.642Z,76.95
2022-11-17T16:04:16.265Z,76.66
2022-11-17T16:06:46.927Z,76.56
2022-11-17T16:09:17.052Z,76.81
2022-11-17T16:11:45.338Z,76.75
2022-11-17T16:14:14.701Z,76.97
2022-11-17T16:16:45.913Z,76.86
2022-11-17T16:19:14.192Z,76.56
2022-11-17T16:21:42.363Z,76.48
2022-11-17T16:24:12.507Z,76.08
2022-11-17T16:26:40.344Z,75.88
2022-11-17T16:29:08.910Z,75.68
2022-11-17T16:31:38.508Z,76.10
2022-11-17T16:34:12.879Z,76.02
2022-11-17T16:36:43.365Z,76.30
2022-11-17T16:39:15.384Z,75.78
2022-11-17T16:41:46.682Z,75.20
2022-11-17T16:44:17.189Z,75.23
2022-11-17T16:46:47.934Z,74.84
2022-11-17T16:49:19.906Z,75.26
2022-11-17T16:51:50.055Z,75.07
2022-11-17T16:54:18.119Z,75.08
2022-11-17T16:56:46.599Z,74.39
2022-11-17T16:59:15.400Z,74.93
2022-11-17T17:01:43.461Z,75.36
2022-11-17T17:04:13.073Z,75.34
2022-11-17T17:06:44.149Z,75.04
2022-11-17T17:09:15.046Z,74.86
2022-11-17T17:11:43.523Z,74.36
2022-11-17T17:14:15.286Z,74.61
2022-11-17T17:16:44.170Z,74.22
2022-11-17T17:19:14.804Z,74.21
2022-11-17T17:21:45.550Z,74.09
2022-11-17T17:24:13.975Z,73.62
2022-11-17T17:26:41.823Z,73.19
2022-11-17T17:29:11.689Z,73.60
2022-11-17T17:31:42.333Z,73.46
2022-11-17T17:34:12.993Z,73.49
2022-11-17T17:36:41.358Z,73.82
2022-11-17T17:39:15.677Z,74.38
2022-11-17T17:41:45.921Z,74.20
2022-11-17T17:44:17.556Z,74.04
2022-11-17T17:46:47.211Z,74.22
2022-11-17T17:49:15.931Z,73.71
2022-11-17T17:51:45.294Z,74.17
2022-11-17T17:54:18.010Z,73.67
2022-11-17T17:56:46.459Z,73.58
2022-11-17T17:59:15.901Z,74.01
2022-11-17T18:01:46.102Z,73.74
2022-11-17T18:04:16.099Z,74.12
2022-11-17T18:06:47.537Z,73.82
2022-11-17T18:09:19.403Z,74.19
2022-11-17T18:11:49.682Z,73.42
2022-11-17T18:14:20.473Z,73.95
2022-11-17T18:16:48.952Z,74.00
2022-11-17T18:19:18.111Z,73.88
2022-11-17T18:21:46.336Z,73.67
2022-11-17T18:24:14.278Z,74.31
2022-11-17T18:26:43.793Z,73.66
2022-11-17T18:29:16.084Z,73.54
2022-11-17T18:31:46.878Z,73.19
2022-11-17T18:34:20.920Z,73.76
2022-11-17T18:36:49.103Z,73.72
2022-11-17T18:39:17.397Z,73.78
2022-11-17T18:41:46.984Z,74.06
2022-11-17T18:44:16.916Z,73.23
2022-11-17T18:46:44.801Z,73.03
2022-11-17T18:49:13.144Z,72.97
2022-11-17T18:51:40.959Z,73.28
2022-11-17T18:54:08.813Z,73.29
2022-11-17T18:56:38.909Z,73.06
2022-11-17T18:59:11.586Z,72.83
2022-11-17T19:01:41.962Z,72.53
2022-11-17T19:04:11.348Z,72.55
2022-11-17T19:06:39.542Z,72.59
2022-11-17T19:09:08.213Z,72.11
2022-11-17T19:11:36.435Z,73.03
2022-11-17T19:14:05.366Z,72.87
2022-11-17T19:16:42.597Z,72.50
2022-11-17T19:19:13.167Z,72.66
2022-11-17T19:21:41.551Z,72.07
2022-11-17T19:24:10.111Z,72.55
2022-11-17T19:26:38.294Z,72.40
2022-11-17T19:29:16.280Z,71.94
2022-11-17T19:31:47.434Z,72.33
2022-11-17T19:34:15.728Z,71.79
2022-11-17T19:36:44.326Z,71.93
2022-11-17T19:39:13.980Z,71.61
2022-11-17T19:41:42.367Z,72.11
2022-11-17T19:44:10.558Z,72.08
2022-11-17T19:46:38.941Z,72.81
2022-11-17T19:49:08.685Z,73.12
2022-11-17T19:51:37.837Z,71.80
2022-11-17T19:54:09.779Z,72.24
2022-11-17T19:56:38.326Z,71.89
2022-11-17T19:59:09.665Z,72.07
2022-11-17T20:01:40.358Z,71.68
2022-11-17T20:04:09.511Z,71.79
2022-11-17T20:06:39.963Z,71.60
2022-11-17T20:09:09.897Z,72.51
2022-11-17T20:11:38.915Z,71.82
2022-11-17T20:14:07.320Z,71.85
2022-11-17T20:16:36.681Z,72.08
2022-11-17T20:19:04.486Z,72.30
2022-11-17T20:21:34.699Z,72.35
2022-11-17T20:24:03.290Z,72.34
2022-11-17T20:26:33.907Z,72.40
2022-11-17T20:29:02.206Z,72.79
2022-11-17T20:31:33.070Z,72.55
2022-11-17T20:34:03.551Z,72.68
2022-11-17T20:36:35.047Z,72.43
2022-11-17T20:39:06.203Z,72.08
2022-11-17T20:41:34.074Z,72.66
2022-11-17T20:44:03.448Z,72.66
2022-11-17T20:46:31.549Z,72.56
2022-11-17T20:48:59.314Z,72.52
2022-11-17T20:51:27.307Z,72.23
2022-11-17T20:53:56.387Z,71.89
2022-11-17T20:56:24.156Z,71.96
2022-11-17T20:58:51.853Z,72.52
2022-11-17T21:01:23.783Z,72.41
2022-11-17T21:03:51.762Z,72.55
2022-11-17T21:06:22.886Z,72.67
2022-11-17T21:08:50.922Z,73.26
2022-11-17T21:11:40.974Z,72.74
2022-11-17T21:14:12.001Z,72.72
2022-11-17T21:16:42.313Z,72.99
2022-11-17T21:19:10.293Z,72.81
2022-11-17T21:21:38.262Z,72.88
2022-11-17T21:24:07.991Z,73.13
2022-11-17T21:26:38.087Z,72.90
2022-11-17T21:29:16.915Z,73.25
2022-11-17T21:31:44.705Z,73.11
2022-11-17T21:34:17.491Z,73.10
2022-11-17T21:36:45.413Z,73.83
2022-11-17T21:39:21.090Z,73.69
2022-11-17T21:41:50.333Z,73.00
2022-11-17T21:44:18.312Z,73.44
2022-11-17T21:46:46.080Z,74.20
2022-11-17T21:49:14.291Z,74.04
2022-11-17T21:51:42.179Z,73.47
2022-11-17T21:54:10.770Z,73.22
2022-11-17T21:56:40.188Z,74.65
2022-11-17T21:59:13.783Z,74.23
2022-11-17T22:01:41.773Z,74.91
2022-11-17T22:04:10.106Z,74.39
2022-11-17T22:06:40.039Z,74.22
2022-11-17T22:09:08.172Z,74.30
2022-11-17T22:11:36.661Z,74.67
2022-11-17T22:14:08.135Z,75.10
2022-11-17T22:16:39.266Z,75.14
2022-11-17T22:19:09.847Z,75.78
2022-11-17T22:21:38.246Z,74.93
2022-11-17T22:24:09.795Z,75.22
2022-11-17T22:26:38.713Z,75.33
2022-11-17T22:29:08.780Z,75.43
2022-11-17T22:31:38.058Z,75.86
2022-11-17T22:34:05.872Z,75.44
2022-11-17T22:36:33.977Z,75.37
2022-11-17T22:39:01.787Z,75.11
2022-11-17T22:41:29.623Z,75.43
2022-11-17T22:43:58.865Z,75.98
2022-11-17T22:46:28.990Z,75.97
2022-11-17T22:48:58.536Z,75.86
2022-11-17T22:51:46.553Z,75.83
2022-11-17T22:54:14.465Z,75.04
2022-11-17T22:56:42.480Z,74.98
2022-11-17T22:59:10.690Z,75.00
2022-11-17T23:01:38.728Z,75.64
2022-11-17T23:04:08.234Z,76.15
2022-11-17T23:06:35.994Z,75.32
2022-11-17T23:09:03.930Z,76.14
2022-11-17T23:11:38.852Z,75.17
2022-11-17T23:14:09.437Z,75.17
2022-11-17T23:16:38.157Z,75.18
2022-11-17T23:19:09.431Z,75.19
2022-11-17T23:21:45.431Z,74.91
2022-11-17T23:24:14.659Z,75.00
2022-11-17T23:26:43.862Z,75.00
2022-11-17T23:29:11.918Z,75.49
2022-11-17T23:31:40.461Z,74.89
2022-11-17T23:34:11.481Z,75.93
2022-11-17T23:36:39.967Z,76.15
2022-11-17T23:39:08.599Z,75.94
2022-11-17T23:41:36.608Z,76.83
2022-11-17T23:44:04.676Z,76.12
2022-11-17T23:46:32.880Z,75.83
2022-11-17T23:49:00.995Z,76.40
2022-11-17T23:51:30.852Z,76.53
2022-11-17T23:54:00.691Z,76.25
2022-11-17T23:56:31.970Z,76.90
2022-11-17T23:58:59.778Z,77.03
